Time;durP1;ratioP1;P1;durP2;ratioP2;P2;SDS_P1;SDS_P2;PMS_P1;PMS_P2;Temp;Humidity;BMP_temperature;BMP_pressure;BME280_temperature;BME280_humidity;BME280_pressure;Samples;Min_cycle;Max_cycle;Signal;HPM_P1;HPM_P2
2023/05/30 00:02:23;;;;;;;;;;;16.40;99.90;;;;;;4973251;28;20346;-76
2023/05/30 00:04:49;;;;;;;;;;;16.40;99.90;;;;;;4973406;28;20367;-76
2023/05/30 00:07:14;;;;;;;;;;;16.30;99.90;;;;;;4973105;28;19921;-76
2023/05/30 00:09:41;;;;;;;;;;;16.30;99.90;;;;;;4973219;28;19910;-77
2023/05/30 00:12:06;;;;;;;;;;;16.20;99.90;;;;;;4972698;28;19913;-76
2023/05/30 00:14:32;;;;;;;;;;;16.20;99.90;;;;;;4972383;28;19914;-76
2023/05/30 00:16:58;;;;;;;;;;;16.20;99.90;;;;;;4973079;28;19906;-75
2023/05/30 00:19:23;;;;;;;;;;;16.20;99.90;;;;;;4973302;28;19957;-75
2023/05/30 00:21:49;;;;;;;;;;;16.20;99.90;;;;;;4973043;28;20290;-76
2023/05/30 00:24:15;;;;;;;;;;;16.20;99.90;;;;;;4988031;28;19999;-76
2023/05/30 00:26:40;;;;;;;;;;;16.30;99.90;;;;;;4971669;28;20331;-76
2023/05/30 00:29:06;;;;;;;;;;;16.30;99.90;;;;;;4972753;28;19912;-76
2023/05/30 00:31:31;;;;;;;;;;;16.30;99.90;;;;;;4972835;28;19912;-76
2023/05/30 00:33:57;;;;;;;;;;;16.40;99.90;;;;;;4972903;28;19913;-77
2023/05/30 00:36:22;;;;;;;;;;;16.40;99.90;;;;;;4971571;28;19956;-76
2023/05/30 00:38:48;;;;;;;;;;;16.40;99.90;;;;;;4972755;28;19967;-76
2023/05/30 00:41:14;;;;;;;;;;;16.30;99.90;;;;;;4972717;28;20385;-76
2023/05/30 00:43:39;;;;;;;;;;;16.40;99.90;;;;;;4971614;28;19910;-76
2023/05/30 00:46:06;;;;;;;;;;;16.30;99.90;;;;;;4972664;28;20031;-76
2023/05/30 00:48:31;;;;;;;;;;;16.30;99.90;;;;;;4972389;28;19996;-76
2023/05/30 00:50:57;;;;;;;;;;;16.30;99.90;;;;;;4971159;28;19993;-76
2023/05/30 00:53:23;;;;;;;;;;;16.20;99.90;;;;;;4972878;28;19953;-75
2023/05/30 00:55:49;;;;;;;;;;;16.20;99.90;;;;;;4971151;28;19928;-76
2023/05/30 00:58:15;;;;;;;;;;;16.20;99.90;;;;;;4972402;28;20424;-76
2023/05/30 01:00:41;;;;;;;;;;;16.20;99.90;;;;;;4972419;28;19906;-76
2023/05/30 01:03:08;;;;;;;;;;;16.20;99.90;;;;;;4967719;28;20391;-76
2023/05/30 01:05:33;;;;;;;;;;;16.10;99.90;;;;;;4952940;29;19918;-75
2023/05/30 01:07:59;;;;;;;;;;;16.10;99.90;;;;;;4952857;29;19957;-76
2023/05/30 01:10:25;;;;;;;;;;;16.00;99.90;;;;;;4952918;29;19910;-77
2023/05/30 01:13:11;;;;;;;;;;;16.00;99.90;;;;;;4953085;29;19917;-76
2023/05/30 01:15:40;;;;;;;;;;;16.00;99.90;;;;;;4967417;28;20371;-75
2023/05/30 01:18:32;;;;;;;;;;;15.90;99.90;;;;;;4952480;29;19917;-76
2023/05/30 01:20:59;;;;;;;;;;;15.80;99.90;;;;;;4950439;29;19911;-76
2023/05/30 01:23:27;;;;;;;;;;;15.80;99.90;;;;;;4952351;28;19994;-76
2023/05/30 01:26:19;;;;;;;;;;;15.80;99.90;;;;;;4952590;29;19942;-77
2023/05/30 01:28:46;;;;;;;;;;;15.80;99.90;;;;;;4953381;28;20438;-75
2023/05/30 01:31:12;;;;;;;;;;;15.70;99.90;;;;;;4952345;29;19914;-76
2023/05/30 01:33:38;;;;;;;;;;;15.70;99.90;;;;;;4967289;28;19907;-76
2023/05/30 01:36:04;;;;;;;;;;;15.70;99.90;;;;;;4967096;28;19910;-77
2023/05/30 01:38:30;;;;;;;;;;;15.60;99.90;;;;;;4952458;29;19914;-76
2023/05/30 01:40:57;;;;;;;;;;;15.60;99.90;;;;;;4967286;28;20379;-76
2023/05/30 01:43:41;;;;;;;;;;;15.60;99.90;;;;;;4952223;29;19922;-76
2023/05/30 01:46:32;;;;;;;;;;;15.60;99.90;;;;;;4952398;29;19970;-76
2023/05/30 01:49:17;;;;;;;;;;;15.60;99.90;;;;;;4949813;29;19910;-76
2023/05/30 01:52:02;;;;;;;;;;;15.50;99.90;;;;;;4952169;29;19914;-75
2023/05/30 01:54:30;;;;;;;;;;;15.50;99.90;;;;;;4952299;29;19910;-76
2023/05/30 01:57:01;;;;;;;;;;;15.50;99.90;;;;;;4952122;29;19910;-74
2023/05/30 01:59:27;;;;;;;;;;;15.60;99.90;;;;;;4952070;29;19906;-76
2023/05/30 02:01:53;;;;;;;;;;;15.60;99.90;;;;;;4951990;29;19929;-76
2023/05/30 02:04:19;;;;;;;;;;;15.60;99.90;;;;;;4970907;28;19918;-76
2023/05/30 02:06:44;;;;;;;;;;;15.60;99.90;;;;;;4971262;28;19957;-75
2023/05/30 02:09:10;;;;;;;;;;;15.70;99.90;;;;;;4971064;28;19917;-77
2023/05/30 02:11:35;;;;;;;;;;;15.70;99.90;;;;;;4971444;28;19906;-76
2023/05/30 02:14:01;;;;;;;;;;;15.70;99.90;;;;;;4971257;28;19928;-76
2023/05/30 02:16:26;;;;;;;;;;;15.60;99.90;;;;;;4971022;28;19906;-76
2023/05/30 02:18:52;;;;;;;;;;;15.60;99.90;;;;;;4971287;28;20008;-76
2023/05/30 02:21:19;;;;;;;;;;;15.60;99.90;;;;;;4970860;28;19906;-76
2023/05/30 02:23:44;;;;;;;;;;;15.60;99.90;;;;;;4971014;28;19973;-76
2023/05/30 02:26:10;;;;;;;;;;;15.50;99.90;;;;;;4971202;28;19909;-75
2023/05/30 02:28:35;;;;;;;;;;;15.50;99.90;;;;;;4970996;28;20425;-76
2023/05/30 02:31:01;;;;;;;;;;;15.40;99.90;;;;;;4970927;28;20379;-75
2023/05/30 02:33:27;;;;;;;;;;;15.40;99.90;;;;;;4971522;28;20287;-76
2023/05/30 02:35:52;;;;;;;;;;;15.40;99.90;;;;;;4975122;28;19910;-75
2023/05/30 02:38:18;;;;;;;;;;;15.30;99.90;;;;;;4975037;28;19913;-76
2023/05/30 02:40:43;;;;;;;;;;;15.30;99.90;;;;;;4975113;28;19906;-75
2023/05/30 02:43:10;;;;;;;;;;;15.30;99.90;;;;;;4973745;28;20022;-76
2023/05/30 02:45:36;;;;;;;;;;;15.30;99.90;;;;;;4975312;28;20006;-76
2023/05/30 02:48:01;;;;;;;;;;;15.20;99.90;;;;;;4974774;28;20052;-76
2023/05/30 02:50:27;;;;;;;;;;;15.20;99.90;;;;;;4974765;28;20394;-76
2023/05/30 02:52:52;;;;;;;;;;;15.20;99.90;;;;;;4973516;28;19910;-76
2023/05/30 02:55:18;;;;;;;;;;;15.20;99.90;;;;;;4974644;28;19906;-76
2023/05/30 02:57:43;;;;;;;;;;;15.20;99.90;;;;;;4974643;28;19906;-76
2023/05/30 03:00:13;;;;;;;;;;;15.20;99.90;;;;;;4974746;28;20450;-76
2023/05/30 03:02:39;;;;;;;;;;;15.20;99.90;;;;;;4974740;28;19937;-75
2023/05/30 03:05:05;;;;;;;;;;;15.20;99.90;;;;;;4974425;28;19972;-76
2023/05/30 03:07:32;;;;;;;;;;;15.20;99.90;;;;;;4974584;28;19914;-76
2023/05/30 03:09:57;;;;;;;;;;;15.20;99.90;;;;;;4973110;28;19910;-76
2023/05/30 03:12:23;;;;;;;;;;;15.20;99.90;;;;;;4974294;28;19910;-77
2023/05/30 03:14:48;;;;;;;;;;;15.20;99.90;;;;;;4974292;28;20008;-75
2023/05/30 03:17:15;;;;;;;;;;;15.30;99.90;;;;;;4973876;28;19906;-76
2023/05/30 03:19:41;;;;;;;;;;;15.30;99.90;;;;;;4974237;28;19952;-74
2023/05/30 03:22:07;;;;;;;;;;;15.40;99.90;;;;;;4974360;28;20409;-76
2023/05/30 03:24:33;;;;;;;;;;;15.40;99.90;;;;;;4974103;28;19945;-76
2023/05/30 03:26:58;;;;;;;;;;;15.50;99.90;;;;;;4974074;28;19910;-77
2023/05/30 03:29:24;;;;;;;;;;;15.50;99.90;;;;;;4974115;28;19910;-76
2023/05/30 03:31:49;;;;;;;;;;;15.50;99.90;;;;;;4974090;28;19909;-76
2023/05/30 03:34:15;;;;;;;;;;;15.50;99.90;;;;;;4974153;28;19945;-76
2023/05/30 03:36:41;;;;;;;;;;;15.60;99.90;;;;;;4974139;28;19906;-76
2023/05/30 03:39:07;;;;;;;;;;;15.70;99.90;;;;;;4973815;28;20639;-77
2023/05/30 03:41:33;;;;;;;;;;;15.70;99.90;;;;;;4973857;28;19914;-76
2023/05/30 03:43:58;;;;;;;;;;;15.80;99.90;;;;;;4973712;28;19917;-76
2023/05/30 03:46:24;;;;;;;;;;;15.90;99.90;;;;;;4972744;28;20319;-76
2023/05/30 03:48:49;;;;;;;;;;;15.90;99.90;;;;;;4974127;28;19910;-76
2023/05/30 03:51:15;;;;;;;;;;;16.00;99.90;;;;;;4973509;28;20223;-76
2023/05/30 03:53:44;;;;;;;;;;;16.10;99.90;;;;;;4973789;28;20004;-76
2023/05/30 03:56:09;;;;;;;;;;;16.20;99.90;;;;;;4973646;28;19910;-77
2023/05/30 03:58:35;;;;;;;;;;;16.30;99.90;;;;;;4972017;28;19906;-77
2023/05/30 04:01:00;;;;;;;;;;;16.50;99.90;;;;;;4973455;28;19914;-77
2023/05/30 04:03:28;;;;;;;;;;;16.70;99.90;;;;;;4973289;28;19973;-75
2023/05/30 04:05:53;;;;;;;;;;;16.90;99.90;;;;;;4973493;28;20409;-76
2023/05/30 04:08:19;;;;;;;;;;;17.20;99.90;;;;;;4972038;28;19909;-76
2023/05/30 04:10:45;;;;;;;;;;;17.10;99.90;;;;;;4973359;28;19910;-76
2023/05/30 04:13:10;;;;;;;;;;;17.20;99.90;;;;;;4973148;28;19960;-76
2023/05/30 04:15:36;;;;;;;;;;;17.20;99.90;;;;;;4971864;28;19906;-76
2023/05/30 04:18:01;;;;;;;;;;;17.20;99.90;;;;;;4973173;28;19961;-74
2023/05/30 04:20:27;;;;;;;;;;;17.30;99.90;;;;;;4973159;28;19959;-76
2023/05/30 04:22:53;;;;;;;;;;;17.40;99.90;;;;;;4973194;28;19910;-76
2023/05/30 04:25:18;;;;;;;;;;;17.60;99.90;;;;;;4972861;28;20509;-76
2023/05/30 04:27:44;;;;;;;;;;;17.70;99.90;;;;;;4972936;28;19906;-76
2023/05/30 04:30:11;;;;;;;;;;;17.90;99.90;;;;;;4973007;28;19917;-76
2023/05/30 04:32:37;;;;;;;;;;;18.00;99.90;;;;;;4972966;28;20027;-76
2023/05/30 04:35:03;;;;;;;;;;;18.20;99.90;;;;;;4972888;28;20005;-76
2023/05/30 04:37:28;;;;;;;;;;;18.20;99.90;;;;;;4972723;28;19909;-76
2023/05/30 04:39:57;;;;;;;;;;;18.40;99.90;;;;;;4972761;28;20386;-75
2023/05/30 04:42:26;;;;;;;;;;;18.60;99.90;;;;;;4972597;28;19914;-76
2023/05/30 04:44:53;;;;;;;;;;;18.80;99.90;;;;;;4972562;28;19921;-76
2023/05/30 04:47:21;;;;;;;;;;;18.90;99.90;;;;;;4972411;28;19914;-76
2023/05/30 04:49:46;;;;;;;;;;;19.20;99.90;;;;;;4972615;28;19906;-76
2023/05/30 04:52:12;;;;;;;;;;;19.30;99.90;;;;;;4972575;28;19929;-76
2023/05/30 04:54:37;;;;;;;;;;;19.50;99.90;;;;;;4972413;28;19910;-77
2023/05/30 04:57:03;;;;;;;;;;;19.60;99.90;;;;;;4971999;28;19997;-75
2023/05/30 04:59:29;;;;;;;;;;;19.70;99.90;;;;;;4972417;28;19914;-77
2023/05/30 05:01:54;;;;;;;;;;;19.80;99.00;;;;;;4972406;28;19913;-76
2023/05/30 05:04:20;;;;;;;;;;;19.80;99.10;;;;;;4970731;28;19922;-75
2023/05/30 05:06:45;;;;;;;;;;;20.00;99.90;;;;;;4987351;28;20341;-76
2023/05/30 05:09:11;;;;;;;;;;;20.20;99.90;;;;;;4970739;28;19917;-76
2023/05/30 05:11:36;;;;;;;;;;;20.50;99.10;;;;;;4972234;28;19993;-76
2023/05/30 05:14:02;;;;;;;;;;;20.70;97.80;;;;;;4972086;28;20009;-76
2023/05/30 05:16:28;;;;;;;;;;;20.90;94.00;;;;;;4970936;28;20311;-76
2023/05/30 05:18:53;;;;;;;;;;;21.20;93.30;;;;;;4972045;28;19957;-76
2023/05/30 05:21:19;;;;;;;;;;;21.30;91.80;;;;;;4970274;28;19989;-77
2023/05/30 05:23:45;;;;;;;;;;;21.50;92.30;;;;;;4970419;28;19964;-76
2023/05/30 05:26:10;;;;;;;;;;;21.60;91.20;;;;;;4971808;28;19922;-76
2023/05/30 05:28:36;;;;;;;;;;;21.60;89.80;;;;;;4971776;28;20267;-76
2023/05/30 05:31:01;;;;;;;;;;;21.70;90.20;;;;;;4970296;28;19909;-77
2023/05/30 05:33:27;;;;;;;;;;;21.80;90.90;;;;;;4970391;28;19949;-76
2023/05/30 05:35:52;;;;;;;;;;;21.80;90.70;;;;;;4971778;28;19914;-77
2023/05/30 05:38:18;;;;;;;;;;;21.90;89.40;;;;;;4971698;28;19914;-76
2023/05/30 05:40:44;;;;;;;;;;;21.90;88.10;;;;;;4971366;28;19910;-76
2023/05/30 05:43:09;;;;;;;;;;;21.90;89.80;;;;;;4970044;28;20304;-77
2023/05/30 05:45:35;;;;;;;;;;;21.90;89.30;;;;;;4971515;28;20324;-76
2023/05/30 05:48:00;;;;;;;;;;;21.90;91.50;;;;;;4970045;28;19910;-77
2023/05/30 05:50:26;;;;;;;;;;;22.00;90.40;;;;;;4971498;28;20004;-76
2023/05/30 05:52:52;;;;;;;;;;;22.10;88.20;;;;;;4970414;28;20275;-76
2023/05/30 05:55:17;;;;;;;;;;;22.50;85.70;;;;;;4971420;28;19906;-77
2023/05/30 05:57:43;;;;;;;;;;;22.90;82.70;;;;;;4971614;28;19906;-77
2023/05/30 06:00:09;;;;;;;;;;;23.40;78.10;;;;;;4971702;28;20367;-77
2023/05/30 06:02:35;;;;;;;;;;;23.90;77.00;;;;;;4971182;28;19914;-77
2023/05/30 06:05:01;;;;;;;;;;;24.60;73.50;;;;;;4971072;28;19918;-77
2023/05/30 06:07:27;;;;;;;;;;;25.50;69.00;;;;;;4971239;28;20268;-77
2023/05/30 06:09:52;;;;;;;;;;;26.10;66.60;;;;;;4970533;28;20542;-77
2023/05/30 06:12:18;;;;;;;;;;;26.40;65.80;;;;;;4971266;28;19910;-77
2023/05/30 06:14:43;;;;;;;;;;;26.40;63.90;;;;;;4971110;28;19910;-78
2023/05/30 06:17:09;;;;;;;;;;;26.40;64.00;;;;;;4970771;28;19913;-77
2023/05/30 06:19:34;;;;;;;;;;;26.30;61.30;;;;;;4971104;28;19913;-77
2023/05/30 06:22:00;;;;;;;;;;;26.30;61.50;;;;;;4971042;28;19913;-77
2023/05/30 06:24:25;;;;;;;;;;;26.10;61.90;;;;;;4970822;28;19914;-77
2023/05/30 06:26:51;;;;;;;;;;;26.00;62.50;;;;;;4970999;28;20379;-77
2023/05/30 06:29:16;;;;;;;;;;;26.40;62.00;;;;;;4969545;28;19906;-77
2023/05/30 06:31:42;;;;;;;;;;;26.70;60.60;;;;;;4971074;28;20281;-77
2023/05/30 06:34:07;;;;;;;;;;;27.30;58.60;;;;;;4969563;28;19913;-76
2023/05/30 06:36:33;;;;;;;;;;;27.70;58.70;;;;;;4970866;28;19910;-77
2023/05/30 06:38:58;;;;;;;;;;;28.30;58.20;;;;;;4970657;28;19906;-78
2023/05/30 06:41:24;;;;;;;;;;;29.00;57.40;;;;;;4970997;28;19910;-77
2023/05/30 06:43:50;;;;;;;;;;;29.70;56.20;;;;;;4970765;28;19935;-76
2023/05/30 06:46:16;;;;;;;;;;;30.30;54.60;;;;;;4969403;28;19949;-77
2023/05/30 06:48:41;;;;;;;;;;;30.80;52.50;;;;;;4970764;28;19933;-77
2023/05/30 06:51:07;;;;;;;;;;;30.90;52.50;;;;;;4970541;28;20437;-77
2023/05/30 06:53:32;;;;;;;;;;;31.20;49.90;;;;;;4970536;28;19914;-75
2023/05/30 06:55:58;;;;;;;;;;;31.40;49.00;;;;;;4970679;28;19910;-74
2023/05/30 06:58:23;;;;;;;;;;;31.50;48.70;;;;;;4970715;28;19910;-75
2023/05/30 07:00:49;;;;;;;;;;;31.70;49.50;;;;;;4970779;28;20374;-74
2023/05/30 07:03:15;;;;;;;;;;;32.00;47.60;;;;;;4970272;28;19922;-75
2023/05/30 07:05:40;;;;;;;;;;;32.00;47.50;;;;;;4985473;28;19918;-74
2023/05/30 07:08:07;;;;;;;;;;;31.60;47.30;;;;;;4970441;28;20405;-75
2023/05/30 07:10:32;;;;;;;;;;;31.30;47.70;;;;;;4969215;28;20343;-74
2023/05/30 07:12:58;;;;;;;;;;;31.10;48.70;;;;;;4970321;28;19945;-74
2023/05/30 07:15:25;;;;;;;;;;;31.10;48.80;;;;;;4969447;28;20445;-75
2023/05/30 07:17:51;;;;;;;;;;;31.30;48.70;;;;;;4970365;28;19937;-74
2023/05/30 07:20:22;;;;;;;;;;;31.60;47.80;;;;;;4970872;28;19973;-75
2023/05/30 07:22:47;;;;;;;;;;;31.80;47.30;;;;;;4974034;28;20008;-75
2023/05/30 07:25:13;;;;;;;;;;;31.90;47.80;;;;;;4988561;28;20024;-75
2023/05/30 07:27:39;;;;;;;;;;;32.10;46.30;;;;;;4973872;28;20437;-76
2023/05/30 07:30:05;;;;;;;;;;;32.40;46.70;;;;;;4973914;28;19910;-77
2023/05/30 07:32:31;;;;;;;;;;;32.40;44.90;;;;;;4988632;28;19914;-76
2023/05/30 07:34:56;;;;;;;;;;;32.30;46.30;;;;;;4973671;28;19916;-75
2023/05/30 07:37:22;;;;;;;;;;;32.10;46.10;;;;;;4973626;28;19953;-74
2023/05/30 07:39:47;;;;;;;;;;;32.20;47.00;;;;;;4973672;28;19914;-75
2023/05/30 07:42:13;;;;;;;;;;;32.40;46.30;;;;;;4973860;28;19921;-75
2023/05/30 07:44:38;;;;;;;;;;;32.30;47.40;;;;;;4973520;28;20449;-74
2023/05/30 07:47:04;;;;;;;;;;;32.40;47.10;;;;;;4973312;28;19906;-75
2023/05/30 07:49:30;;;;;;;;;;;32.50;45.80;;;;;;4973513;28;20001;-75
2023/05/30 07:51:55;;;;;;;;;;;32.70;45.70;;;;;;4973960;28;19906;-76
2023/05/30 07:54:21;;;;;;;;;;;32.80;44.90;;;;;;4973456;28;19906;-76
2023/05/30 07:56:46;;;;;;;;;;;32.80;45.30;;;;;;4973260;28;19906;-75
2023/05/30 07:59:12;;;;;;;;;;;32.60;45.10;;;;;;4987931;28;19917;-74
2023/05/30 08:01:37;;;;;;;;;;;32.90;44.70;;;;;;4973612;28;19906;-75
2023/05/30 08:04:03;;;;;;;;;;;33.20;44.70;;;;;;4973092;28;19926;-76
2023/05/30 08:06:29;;;;;;;;;;;33.30;44.10;;;;;;4973158;28;19912;-75
2023/05/30 08:08:54;;;;;;;;;;;33.20;43.10;;;;;;4972120;28;19933;-74
2023/05/30 08:11:20;;;;;;;;;;;33.30;43.60;;;;;;4971563;28;20433;-75
2023/05/30 08:13:47;;;;;;;;;;;33.70;42.80;;;;;;4973235;28;19910;-75
2023/05/30 08:16:13;;;;;;;;;;;33.50;42.30;;;;;;4972961;28;19949;-75
2023/05/30 08:18:38;;;;;;;;;;;33.50;43.00;;;;;;4971727;28;20406;-74
2023/05/30 08:21:04;;;;;;;;;;;33.70;43.10;;;;;;4972999;28;19906;-75
2023/05/30 08:23:30;;;;;;;;;;;33.60;43.50;;;;;;4973104;28;20230;-75
2023/05/30 08:25:56;;;;;;;;;;;33.30;43.30;;;;;;4972828;28;20271;-75
2023/05/30 08:28:21;;;;;;;;;;;33.60;43.50;;;;;;4972865;28;19997;-74
2023/05/30 08:30:50;;;;;;;;;;;33.40;43.00;;;;;;4972578;28;20343;-75
2023/05/30 08:33:19;;;;;;;;;;;33.40;43.50;;;;;;4972238;28;20009;-75
2023/05/30 08:35:45;;;;;;;;;;;33.60;42.10;;;;;;4972847;28;19906;-74
2023/05/30 08:38:10;;;;;;;;;;;33.50;42.80;;;;;;4972767;28;20394;-76
2023/05/30 08:40:40;;;;;;;;;;;33.30;41.10;;;;;;4972758;28;20004;-75
2023/05/30 08:43:05;;;;;;;;;;;33.40;42.60;;;;;;4972456;28;19912;-76
2023/05/30 08:45:31;;;;;;;;;;;33.50;42.70;;;;;;4972627;28;20365;-76
2023/05/30 08:47:57;;;;;;;;;;;33.60;43.50;;;;;;4971122;28;20452;-75
2023/05/30 08:50:24;;;;;;;;;;;33.80;42.40;;;;;;4972462;28;19921;-76
2023/05/30 08:52:53;;;;;;;;;;;33.80;41.30;;;;;;4972431;28;19976;-76
2023/05/30 08:55:23;;;;;;;;;;;33.80;41.60;;;;;;4972255;28;19961;-75
2023/05/30 08:57:48;;;;;;;;;;;33.60;41.80;;;;;;4972259;28;19941;-75
2023/05/30 09:00:15;;;;;;;;;;;33.60;40.50;;;;;;4987073;28;19956;-76
2023/05/30 09:02:42;;;;;;;;;;;33.70;40.50;;;;;;4972047;28;19929;-75
2023/05/30 09:05:08;;;;;;;;;;;33.80;41.40;;;;;;4972049;28;20276;-75
2023/05/30 09:07:34;;;;;;;;;;;33.80;40.90;;;;;;4972144;28;19913;-75
2023/05/30 09:10:00;;;;;;;;;;;33.90;40.30;;;;;;4972603;28;19906;-76
2023/05/30 09:12:26;;;;;;;;;;;34.20;39.10;;;;;;4972413;28;19942;-76
2023/05/30 09:14:52;;;;;;;;;;;33.50;40.90;;;;;;4987667;28;19956;-75
2023/05/30 09:17:17;;;;;;;;;;;33.90;41.20;;;;;;4971845;28;19906;-75
2023/05/30 09:19:43;;;;;;;;;;;34.30;40.90;;;;;;4971957;28;20398;-74
2023/05/30 09:22:09;;;;;;;;;;;34.80;40.50;;;;;;4970616;28;19906;-75
2023/05/30 09:24:55;;;;;;;;;;;34.80;38.50;;;;;;4971811;28;20306;-75
2023/05/30 09:27:20;;;;;;;;;;;34.40;41.20;;;;;;4971786;28;19964;-75
2023/05/30 09:29:46;;;;;;;;;;;34.10;40.20;;;;;;4971867;28;19910;-75
2023/05/30 09:32:12;;;;;;;;;;;33.80;41.10;;;;;;4972059;28;19961;-75
2023/05/30 09:34:37;;;;;;;;;;;33.60;40.80;;;;;;4972026;28;19910;-75
2023/05/30 09:37:04;;;;;;;;;;;32.90;42.20;;;;;;4971749;28;19960;-75
2023/05/30 09:39:29;;;;;;;;;;;32.20;42.10;;;;;;4971906;28;19937;-74
2023/05/30 09:41:58;;;;;;;;;;;31.40;44.50;;;;;;4971844;28;19906;-75
2023/05/30 09:44:23;;;;;;;;;;;30.90;43.70;;;;;;4971655;28;19922;-75
2023/05/30 09:46:56;;;;;;;;;;;30.40;44.90;;;;;;4971598;28;19917;-76
2023/05/30 09:49:22;;;;;;;;;;;29.70;45.50;;;;;;4971455;28;19906;-75
2023/05/30 09:51:48;;;;;;;;;;;29.20;47.20;;;;;;4971484;28;19910;-75
2023/05/30 09:54:14;;;;;;;;;;;28.70;48.30;;;;;;4971445;28;20208;-77
2023/05/30 09:56:41;;;;;;;;;;;28.30;49.10;;;;;;4971060;28;20390;-78
2023/05/30 09:59:07;;;;;;;;;;;27.80;50.70;;;;;;4971108;28;19913;-76
2023/05/30 10:01:36;;;;;;;;;;;27.30;57.60;;;;;;4971237;28;19969;-75
2023/05/30 10:04:09;;;;;;;;;;;26.60;61.20;;;;;;4971077;28;19960;-73
2023/05/30 10:06:38;;;;;;;;;;;26.00;67.00;;;;;;4971160;28;19910;-75
2023/05/30 10:09:03;;;;;;;;;;;25.60;69.80;;;;;;4971039;28;19949;-74
2023/05/30 10:11:29;;;;;;;;;;;25.10;81.10;;;;;;4971164;28;19957;-73
2023/05/30 10:13:55;;;;;;;;;;;24.50;87.30;;;;;;4971082;28;20286;-73
2023/05/30 10:16:21;;;;;;;;;;;23.70;90.10;;;;;;4971035;28;19910;-73
2023/05/30 10:18:53;;;;;;;;;;;22.90;92.80;;;;;;4971105;28;19910;-73
2023/05/30 10:21:21;;;;;;;;;;;22.40;97.20;;;;;;4970814;28;19917;-73
2023/05/30 10:23:47;;;;;;;;;;;21.90;99.90;;;;;;4970834;28;20389;-73
2023/05/30 10:26:14;;;;;;;;;;;21.70;99.90;;;;;;4970747;28;19914;-71
2023/05/30 10:28:41;;;;;;;;;;;21.40;99.90;;;;;;4970844;28;19929;-72
2023/05/30 10:31:07;;;;;;;;;;;20.70;99.90;;;;;;4970784;28;19917;-72
2023/05/30 10:33:36;;;;;;;;;;;19.90;99.90;;;;;;4970931;28;20029;-71
2023/05/30 10:36:02;;;;;;;;;;;19.10;99.90;;;;;;4969428;28;19914;-74
2023/05/30 10:38:29;;;;;;;;;;;18.60;99.90;;;;;;4971269;28;20256;-74
2023/05/30 10:41:04;;;;;;;;;;;18.20;99.90;;;;;;4970898;28;20029;-74
2023/05/30 10:43:33;;;;;;;;;;;17.70;99.90;;;;;;4985620;28;19989;-74
2023/05/30 10:45:58;;;;;;;;;;;17.20;99.90;;;;;;4970692;28;19921;-74
2023/05/30 10:48:33;;;;;;;;;;;16.90;99.90;;;;;;4970830;28;20287;-74
2023/05/30 10:50:59;;;;;;;;;;;16.60;99.90;;;;;;4970786;28;19906;-74
2023/05/30 10:53:25;;;;;;;;;;;16.20;99.90;;;;;;4969529;28;20339;-73
2023/05/30 10:55:51;;;;;;;;;;;15.50;99.90;;;;;;4973303;28;19945;-74
2023/05/30 10:58:38;;;;;;;;;;;15.00;99.90;;;;;;4974420;28;19910;-74
2023/05/30 11:01:23;;;;;;;;;;;14.60;99.90;;;;;;4974383;28;19914;-74
2023/05/30 11:03:54;;;;;;;;;;;14.40;99.90;;;;;;4974059;28;19922;-74
2023/05/30 11:06:20;;;;;;;;;;;14.30;99.90;;;;;;4974493;28;19921;-75
2023/05/30 11:08:45;;;;;;;;;;;14.30;99.90;;;;;;4974425;28;19910;-75
2023/05/30 11:11:15;;;;;;;;;;;14.30;99.90;;;;;;4974348;28;20400;-75
2023/05/30 11:13:43;;;;;;;;;;;14.30;99.90;;;;;;4973126;28;19917;-75
2023/05/30 11:16:23;;;;;;;;;;;14.40;99.90;;;;;;4972941;28;19949;-74
2023/05/30 11:18:51;;;;;;;;;;;14.40;99.90;;;;;;4974364;28;20306;-75
2023/05/30 11:21:36;;;;;;;;;;;14.40;99.90;;;;;;4972845;28;19957;-75
2023/05/30 11:24:03;;;;;;;;;;;14.40;99.90;;;;;;4972753;28;19917;-75
2023/05/30 11:26:47;;;;;;;;;;;14.50;99.90;;;;;;4972821;28;19914;-75
2023/05/30 11:29:28;;;;;;;;;;;14.70;99.90;;;;;;4973916;28;19949;-75
2023/05/30 11:31:55;;;;;;;;;;;14.70;99.90;;;;;;4974129;28;19913;-75
2023/05/30 11:34:21;;;;;;;;;;;14.70;99.90;;;;;;4973981;28;19906;-75
2023/05/30 11:36:47;;;;;;;;;;;14.80;99.90;;;;;;4973917;28;20363;-75
2023/05/30 11:39:13;;;;;;;;;;;14.90;99.90;;;;;;4973708;28;19917;-75
2023/05/30 11:41:39;;;;;;;;;;;14.90;99.90;;;;;;4972612;28;19906;-75
2023/05/30 11:44:05;;;;;;;;;;;15.00;99.90;;;;;;4972380;28;19910;-75
2023/05/30 11:46:31;;;;;;;;;;;15.10;99.90;;;;;;4973797;28;19988;-75
2023/05/30 11:48:57;;;;;;;;;;;15.20;99.90;;;;;;4973665;28;19941;-75
2023/05/30 11:51:22;;;;;;;;;;;15.40;99.90;;;;;;4973540;28;20061;-75
2023/05/30 11:53:48;;;;;;;;;;;15.50;99.90;;;;;;4973410;28;20473;-75
2023/05/30 11:56:15;;;;;;;;;;;15.70;99.90;;;;;;4972391;28;19914;-76
2023/05/30 11:58:41;;;;;;;;;;;15.80;99.90;;;;;;4973578;28;19906;-74
2023/05/30 12:01:07;;;;;;;;;;;15.90;99.90;;;;;;4972131;28;19906;-74
2023/05/30 12:03:33;;;;;;;;;;;16.00;99.90;;;;;;4972070;28;19929;-75
2023/05/30 12:06:09;;;;;;;;;;;16.30;99.90;;;;;;4972366;28;19914;-75
2023/05/30 12:08:38;;;;;;;;;;;16.60;99.90;;;;;;4973369;28;19906;-75
2023/05/30 12:11:04;;;;;;;;;;;16.60;99.90;;;;;;4973264;28;19917;-75
2023/05/30 12:13:30;;;;;;;;;;;16.70;99.90;;;;;;4973257;28;19905;-74
2023/05/30 12:15:55;;;;;;;;;;;16.90;99.90;;;;;;4973145;28;19906;-75
2023/05/30 12:18:21;;;;;;;;;;;17.00;99.90;;;;;;4988003;28;20045;-75
2023/05/30 12:20:47;;;;;;;;;;;17.10;99.90;;;;;;4973060;28;20302;-75
2023/05/30 12:23:13;;;;;;;;;;;17.30;99.90;;;;;;4972887;28;19913;-76
2023/05/30 12:25:39;;;;;;;;;;;17.50;99.90;;;;;;4972901;28;19922;-75
2023/05/30 12:28:05;;;;;;;;;;;17.60;99.90;;;;;;4972857;28;19906;-76
2023/05/30 12:30:34;;;;;;;;;;;17.70;99.90;;;;;;4972858;28;19997;-76
2023/05/30 12:33:11;;;;;;;;;;;18.00;99.90;;;;;;4972696;28;19943;-76
2023/05/30 12:35:39;;;;;;;;;;;18.50;99.90;;;;;;4972779;28;20366;-76
2023/05/30 12:38:04;;;;;;;;;;;18.80;99.90;;;;;;4972790;28;20326;-76
2023/05/30 12:40:30;;;;;;;;;;;19.00;99.90;;;;;;4972561;28;19910;-76
2023/05/30 12:42:58;;;;;;;;;;;19.20;99.90;;;;;;4972508;28;19906;-75
2023/05/30 12:45:24;;;;;;;;;;;19.20;99.90;;;;;;4972567;28;19948;-77
2023/05/30 12:47:49;;;;;;;;;;;19.40;99.90;;;;;;4972458;28;20357;-76
2023/05/30 12:50:15;;;;;;;;;;;19.80;99.90;;;;;;4972517;28;19910;-76
2023/05/30 12:52:41;;;;;;;;;;;20.00;99.90;;;;;;4972589;28;19906;-77
2023/05/30 12:55:07;;;;;;;;;;;20.20;99.90;;;;;;4972187;28;19906;-75
2023/05/30 12:57:32;;;;;;;;;;;20.40;99.90;;;;;;4972275;28;19956;-76
2023/05/30 12:59:58;;;;;;;;;;;20.40;99.90;;;;;;4972257;28;20367;-76
2023/05/30 13:02:24;;;;;;;;;;;20.30;99.90;;;;;;4972071;28;19945;-76
2023/05/30 13:04:53;;;;;;;;;;;20.20;99.90;;;;;;4972076;28;19920;-76
2023/05/30 13:07:19;;;;;;;;;;;20.10;99.90;;;;;;4972011;28;19941;-75
2023/05/30 13:09:44;;;;;;;;;;;19.90;99.90;;;;;;4972246;28;20468;-74
2023/05/30 13:12:10;;;;;;;;;;;19.70;99.90;;;;;;4972190;28;19973;-74
2023/05/30 13:14:36;;;;;;;;;;;19.70;99.90;;;;;;4972102;28;19930;-75
2023/05/30 13:17:03;;;;;;;;;;;19.80;99.90;;;;;;4971742;28;19957;-74
2023/05/30 13:19:29;;;;;;;;;;;19.90;99.90;;;;;;4972021;28;19924;-74
2023/05/30 13:21:55;;;;;;;;;;;19.90;99.90;;;;;;4971950;28;19941;-75
2023/05/30 13:24:20;;;;;;;;;;;19.90;99.90;;;;;;4971954;28;19953;-74
2023/05/30 13:26:47;;;;;;;;;;;19.90;99.90;;;;;;4971829;28;19914;-74
2023/05/30 13:29:13;;;;;;;;;;;19.80;99.90;;;;;;4971703;28;19917;-74
2023/05/30 13:31:38;;;;;;;;;;;19.80;99.90;;;;;;4971746;28;19910;-75
2023/05/30 13:34:04;;;;;;;;;;;19.80;99.90;;;;;;4971837;28;19933;-74
2023/05/30 13:36:30;;;;;;;;;;;19.90;99.90;;;;;;4970247;28;20291;-74
2023/05/30 13:38:56;;;;;;;;;;;20.00;99.90;;;;;;4971650;28;19917;-73
2023/05/30 13:41:21;;;;;;;;;;;20.20;99.90;;;;;;4970666;28;19910;-75
2023/05/30 13:43:47;;;;;;;;;;;20.30;99.90;;;;;;4971577;28;19910;-75
2023/05/30 13:46:13;;;;;;;;;;;20.40;99.90;;;;;;4971592;28;20077;-75
2023/05/30 13:48:38;;;;;;;;;;;20.50;99.90;;;;;;4971604;28;19963;-75
2023/05/30 13:51:04;;;;;;;;;;;20.70;99.90;;;;;;4971385;28;20279;-75
2023/05/30 13:53:29;;;;;;;;;;;20.70;99.90;;;;;;4970032;28;19996;-75
2023/05/30 13:55:55;;;;;;;;;;;20.70;99.90;;;;;;4971461;28;19910;-75
2023/05/30 13:58:21;;;;;;;;;;;20.80;99.90;;;;;;4971239;28;19910;-74
2023/05/30 14:00:47;;;;;;;;;;;20.90;99.90;;;;;;4971241;28;19910;-75
2023/05/30 14:03:13;;;;;;;;;;;21.20;99.90;;;;;;4971111;28;20196;-75
2023/05/30 14:05:39;;;;;;;;;;;21.40;99.90;;;;;;4971116;28;20056;-74
2023/05/30 14:08:04;;;;;;;;;;;21.50;99.90;;;;;;4969814;28;19918;-74
2023/05/30 14:10:30;;;;;;;;;;;21.50;99.90;;;;;;4971013;28;19910;-74
2023/05/30 14:12:56;;;;;;;;;;;21.60;99.90;;;;;;4969800;28;19910;-73
2023/05/30 14:15:21;;;;;;;;;;;21.80;99.90;;;;;;4971125;28;19910;-74